createdAt,value
2023-02-04T00:03:52.379Z,1.73
2023-02-04T00:07:59.149Z,4.45
2023-02-04T00:12:05.965Z,2.72
2023-02-04T00:16:12.723Z,3.65
2023-02-04T00:20:22.423Z,2.08
2023-02-04T00:24:29.102Z,2.60
2023-02-04T00:28:35.817Z,2.22
2023-02-04T00:32:42.582Z,3.50
2023-02-04T00:36:49.635Z,2.78
2023-02-04T00:40:56.361Z,1.80
2023-02-04T00:45:03.303Z,1.95
2023-02-04T00:49:10.954Z,1.45
2023-02-04T00:53:17.646Z,2.78
2023-02-04T00:57:24.325Z,2.53
2023-02-04T01:01:31.082Z,3.20
2023-02-04T01:05:37.829Z,2.47
2023-02-04T01:09:44.565Z,1.98
2023-02-04T01:13:51.224Z,3.53
2023-02-04T01:17:57.887Z,1.73
2023-02-04T01:22:04.558Z,3.15
2023-02-04T01:26:11.234Z,1.63
2023-02-04T01:30:18.024Z,2.25
2023-02-04T01:34:25.976Z,3.17
2023-02-04T01:38:32.633Z,2.67
2023-02-04T01:42:39.564Z,2.00
2023-02-04T01:46:46.329Z,1.70
2023-02-04T01:50:57.321Z,1.60
2023-02-04T01:55:06.228Z,2.03
2023-02-04T01:59:15.319Z,2.72
2023-02-04T02:03:21.996Z,2.38
2023-02-04T02:07:28.703Z,1.55
2023-02-04T02:11:35.488Z,2.00
2023-02-04T02:15:43.160Z,2.25
2023-02-04T02:19:50.013Z,2.17
2023-02-04T02:23:57.665Z,2.90
2023-02-04T02:28:10.157Z,1.92
2023-02-04T02:36:23.740Z,1.95
2023-02-04T02:40:30.765Z,1.20
2023-02-04T02:44:37.712Z,1.75
2023-02-04T02:48:44.831Z,1.83
2023-02-04T02:52:53.044Z,1.60
2023-02-04T02:57:00.180Z,4.05
2023-02-04T03:01:09.672Z,1.77
2023-02-04T03:05:16.450Z,2.33
2023-02-04T03:09:26.765Z,2.15
2023-02-04T03:13:34.138Z,3.38
2023-02-04T03:17:41.905Z,2.40
2023-02-04T03:21:48.663Z,1.85
2023-02-04T03:25:55.435Z,2.22
2023-02-04T03:30:02.160Z,2.70
2023-02-04T03:34:09.045Z,2.72
2023-02-04T03:38:15.719Z,3.03
2023-02-04T03:42:22.429Z,2.88
2023-02-04T03:46:29.532Z,2.88
2023-02-04T03:50:36.272Z,2.42
2023-02-04T03:54:42.970Z,3.15
2023-02-04T03:58:49.937Z,1.77
2023-02-04T04:02:57.631Z,2.42
2023-02-04T04:07:04.727Z,3.33
2023-02-04T04:11:12.045Z,3.80
2023-02-04T04:15:18.967Z,2.08
2023-02-04T04:19:25.754Z,3.78
2023-02-04T04:23:32.488Z,3.30
2023-02-04T04:27:39.320Z,2.60
2023-02-04T04:31:46.203Z,2.55
2023-02-04T04:35:52.960Z,2.33
2023-02-04T04:40:00.636Z,2.45
2023-02-04T04:44:07.534Z,2.50
2023-02-04T04:48:14.611Z,2.30
2023-02-04T04:52:21.422Z,3.00
2023-02-04T04:56:28.304Z,1.75
2023-02-04T05:00:36.931Z,1.98
2023-02-04T05:04:43.712Z,3.08
2023-02-04T05:08:50.851Z,2.00
2023-02-04T05:12:57.722Z,2.70
2023-02-04T05:17:04.478Z,2.78
2023-02-04T05:21:11.195Z,2.60
2023-02-04T05:25:18.219Z,2.05
2023-02-04T05:29:24.933Z,1.52
2023-02-04T05:33:31.661Z,1.83
2023-02-04T05:37:38.432Z,3.63
2023-02-04T05:41:45.204Z,2.25
2023-02-04T05:45:51.966Z,2.17
2023-02-04T05:49:58.813Z,1.63
2023-02-04T05:54:05.572Z,1.23
2023-02-04T05:58:12.367Z,2.10
2023-02-04T06:02:19.646Z,1.05
2023-02-04T06:06:26.410Z,2.97
2023-02-04T06:10:33.495Z,1.23
2023-02-04T06:14:40.550Z,2.28
2023-02-04T06:18:47.341Z,1.52
2023-02-04T06:22:54.489Z,1.48
2023-02-04T06:27:01.320Z,3.70
2023-02-04T06:31:09.247Z,2.28
2023-02-04T06:35:16.656Z,1.40
2023-02-04T06:39:23.482Z,1.55
2023-02-04T06:43:30.243Z,1.80
2023-02-04T06:47:36.993Z,1.25
2023-02-04T06:51:43.757Z,1.75
2023-02-04T06:55:50.779Z,1.67
2023-02-04T06:59:57.505Z,1.77
2023-02-04T07:04:04.955Z,1.98
2023-02-04T07:08:12.096Z,1.35
2023-02-04T07:12:19.586Z,1.52
2023-02-04T07:16:26.546Z,0.90
2023-02-04T07:20:33.944Z,1.27
2023-02-04T07:24:41.421Z,0.90
2023-02-04T07:28:49.278Z,1.20
2023-02-04T07:32:56.468Z,0.60
2023-02-04T07:37:03.406Z,1.10
2023-02-04T07:41:10.130Z,2.00
2023-02-04T07:45:17.545Z,0.70
2023-02-04T07:49:24.434Z,1.08
2023-02-04T07:53:31.481Z,2.45
2023-02-04T07:57:38.530Z,1.80
2023-02-04T08:01:48.160Z,1.08
2023-02-04T08:05:56.138Z,1.83
2023-02-04T08:10:04.862Z,3.95
2023-02-04T08:14:11.731Z,3.45
2023-02-04T08:18:18.468Z,4.50
2023-02-04T08:22:25.368Z,2.25
2023-02-04T08:26:32.434Z,2.83
2023-02-04T08:30:39.335Z,3.47
2023-02-04T08:34:48.327Z,2.45
2023-02-04T08:38:55.512Z,2.15
2023-02-04T08:43:02.827Z,2.40
2023-02-04T08:47:10.246Z,3.15
2023-02-04T08:51:17.291Z,2.55
2023-02-04T08:55:24.080Z,3.38
2023-02-04T08:59:30.839Z,4.32
2023-02-04T09:03:38.475Z,2.97
2023-02-04T09:07:45.235Z,3.97
2023-02-04T09:11:51.985Z,2.55
2023-02-04T09:15:58.852Z,3.15
2023-02-04T09:20:06.629Z,3.40
2023-02-04T09:24:13.459Z,3.08
2023-02-04T09:28:21.478Z,2.88
2023-02-04T09:32:28.527Z,3.88
2023-02-04T09:36:38.010Z,3.50
2023-02-04T09:40:55.307Z,3.30
2023-02-04T09:45:03.665Z,2.85
2023-02-04T09:49:20.828Z,3.78
2023-02-04T09:53:29.956Z,3.47
2023-02-04T09:57:37.457Z,2.95
2023-02-04T10:02:09.340Z,3.65
2023-02-04T10:06:18.552Z,5.78
2023-02-04T10:10:27.385Z,4.93
2023-02-04T10:14:34.373Z,3.90
2023-02-04T10:18:41.869Z,3.30
2023-02-04T10:22:51.101Z,5.25
2023-02-04T10:27:12.648Z,3.63
2023-02-04T10:31:35.974Z,5.05
2023-02-04T10:35:51.376Z,3.28
2023-02-04T10:39:58.102Z,5.03
2023-02-04T10:44:11.588Z,5.13
2023-02-04T10:48:19.440Z,6.68
2023-02-04T10:52:39.074Z,6.35
2023-02-04T10:56:45.824Z,5.00
2023-02-04T11:00:52.526Z,4.28
2023-02-04T11:05:00.420Z,3.83
2023-02-04T11:09:11.483Z,5.22
2023-02-04T11:13:23.989Z,6.28
2023-02-04T11:21:45.140Z,3.60
2023-02-04T11:26:09.920Z,5.07
2023-02-04T11:30:23.001Z,4.05
2023-02-04T11:34:31.875Z,6.35
2023-02-04T11:38:38.827Z,3.85
2023-02-04T11:42:45.568Z,2.28
2023-02-04T11:46:56.840Z,4.22
2023-02-04T11:51:11.500Z,4.20
2023-02-04T11:55:19.287Z,3.70
2023-02-04T11:59:25.994Z,4.93
2023-02-04T12:03:36.428Z,6.25
2023-02-04T12:07:44.446Z,4.13
2023-02-04T12:11:56.184Z,4.57
2023-02-04T12:16:07.426Z,4.13
2023-02-04T12:20:14.632Z,4.20
2023-02-04T12:24:21.331Z,4.70
2023-02-04T12:28:28.945Z,4.72
2023-02-04T12:32:35.647Z,3.03
2023-02-04T12:36:42.312Z,3.05
2023-02-04T12:40:49.016Z,4.88
2023-02-04T12:44:55.730Z,2.47
2023-02-04T12:49:02.450Z,2.78
2023-02-04T12:53:09.192Z,2.92
2023-02-04T12:57:19.620Z,3.22
2023-02-04T13:01:26.283Z,2.65
2023-02-04T13:05:33.287Z,3.38
2023-02-04T13:09:40.145Z,2.38
2023-02-04T13:13:46.814Z,1.35
2023-02-04T13:17:53.685Z,2.97
2023-02-04T13:22:00.810Z,2.00
2023-02-04T13:26:08.881Z,1.52
2023-02-04T13:30:16.049Z,1.58
2023-02-04T13:34:22.777Z,3.40
2023-02-04T13:38:29.444Z,3.28
2023-02-04T13:42:36.192Z,2.42
2023-02-04T13:46:42.886Z,1.02
2023-02-04T13:50:50.816Z,2.42
2023-02-04T13:54:57.497Z,1.58
2023-02-04T13:59:04.230Z,3.45
2023-02-04T14:03:10.908Z,4.30
2023-02-04T14:07:17.577Z,2.03
2023-02-04T14:11:24.258Z,2.08
2023-02-04T14:15:31.002Z,1.10
2023-02-04T14:19:37.674Z,2.33
2023-02-04T14:23:44.472Z,2.30
2023-02-04T14:27:51.474Z,1.77
2023-02-04T14:31:58.268Z,2.92
2023-02-04T14:36:05.211Z,2.78
2023-02-04T14:40:13.089Z,2.17
2023-02-04T14:44:20.738Z,1.83
2023-02-04T14:48:27.479Z,1.88
2023-02-04T14:52:34.315Z,2.13
2023-02-04T14:56:40.959Z,1.55
2023-02-04T15:00:47.860Z,2.55
2023-02-04T15:04:54.654Z,2.45
2023-02-04T15:09:01.339Z,1.85
2023-02-04T15:13:07.999Z,2.95
2023-02-04T15:17:14.665Z,2.53
2023-02-04T15:21:21.360Z,3.03
2023-02-04T15:25:28.239Z,1.85
2023-02-04T15:29:35.014Z,2.25
2023-02-04T15:33:41.703Z,1.85
2023-02-04T15:37:48.671Z,3.58
2023-02-04T15:41:55.376Z,2.33
2023-02-04T15:46:02.169Z,2.05
2023-02-04T15:50:10.991Z,2.15
2023-02-04T15:54:17.696Z,2.58
2023-02-04T15:58:24.338Z,3.17
2023-02-04T16:02:31.050Z,2.45
2023-02-04T16:06:39.995Z,1.98
2023-02-04T16:10:47.981Z,2.83
2023-02-04T16:14:54.676Z,2.03
2023-02-04T16:19:01.476Z,2.92
2023-02-04T16:23:08.231Z,2.22
2023-02-04T16:27:15.101Z,3.50
2023-02-04T16:31:21.860Z,3.30
2023-02-04T16:35:28.657Z,2.65
2023-02-04T16:39:38.871Z,2.22
2023-02-04T16:43:45.625Z,2.85
2023-02-04T16:47:52.302Z,2.63
2023-02-04T16:52:01.441Z,3.30
2023-02-04T16:56:08.141Z,4.45
2023-02-04T17:00:15.166Z,3.17
2023-02-04T17:04:21.850Z,2.72
2023-02-04T17:08:29.519Z,3.38
2023-02-04T17:12:36.219Z,3.47
2023-02-04T17:16:44.229Z,2.83
2023-02-04T17:20:50.883Z,3.72
2023-02-04T17:24:57.547Z,3.40
2023-02-04T17:29:09.724Z,4.43
2023-02-04T17:33:16.377Z,4.90
2023-02-04T17:37:23.096Z,2.83
2023-02-04T17:41:30.791Z,2.80
2023-02-04T17:45:38.145Z,4.70
2023-02-04T17:49:44.992Z,3.80
2023-02-04T17:53:52.268Z,3.83
2023-02-04T17:58:01.084Z,5.00
2023-02-04T18:02:29.565Z,5.72
2023-02-04T18:06:37.612Z,4.57
2023-02-04T18:10:49.299Z,4.72
2023-02-04T18:14:56.018Z,5.17
2023-02-04T18:19:18.354Z,7.07
2023-02-04T18:23:27.509Z,5.18
2023-02-04T18:27:34.616Z,4.38
2023-02-04T18:31:50.523Z,4.82
2023-02-04T18:36:02.144Z,3.83
2023-02-04T18:40:08.809Z,5.77
2023-02-04T18:44:28.917Z,5.45
2023-02-04T18:49:11.752Z,3.83
2023-02-04T18:57:39.693Z,3.47
2023-02-04T19:01:48.540Z,4.22
2023-02-04T19:06:00.854Z,3.70
2023-02-04T19:10:31.709Z,3.97
2023-02-04T19:14:42.380Z,4.93
2023-02-04T19:18:49.821Z,4.65
2023-02-04T19:22:56.975Z,4.53
2023-02-04T19:27:24.334Z,3.60
2023-02-04T19:31:36.704Z,4.43
2023-02-04T19:35:46.173Z,5.57
2023-02-04T19:39:54.484Z,7.43
2023-02-04T19:44:13.765Z,6.40
2023-02-04T19:48:35.979Z,5.68
2023-02-04T19:52:46.609Z,4.82
2023-02-04T19:56:54.782Z,4.85
2023-02-04T20:01:04.897Z,5.88
2023-02-04T20:05:20.239Z,6.05
2023-02-04T20:09:30.768Z,6.70
2023-02-04T20:13:37.457Z,6.85
2023-02-04T20:17:48.566Z,6.43
2023-02-04T20:22:23.436Z,5.68
2023-02-04T20:26:30.137Z,5.28
2023-02-04T20:30:36.841Z,6.05
2023-02-04T20:34:43.568Z,5.38
2023-02-04T20:38:50.313Z,4.28
2023-02-04T20:42:59.534Z,4.53
2023-02-04T20:47:21.120Z,4.53
2023-02-04T20:51:27.791Z,5.63
2023-02-04T20:55:35.077Z,4.18
2023-02-04T20:59:42.798Z,3.78
2023-02-04T21:03:51.249Z,4.97
2023-02-04T21:07:58.242Z,3.72
2023-02-04T21:12:05.051Z,3.40
2023-02-04T21:16:11.820Z,4.18
2023-02-04T21:20:18.579Z,5.78
2023-02-04T21:24:26.492Z,5.22
2023-02-04T21:28:33.226Z,3.90
2023-02-04T21:32:39.882Z,5.15
2023-02-04T21:36:46.801Z,4.07
2023-02-04T21:40:53.539Z,5.88
2023-02-04T21:45:01.359Z,5.00
2023-02-04T21:49:08.173Z,4.63
2023-02-04T21:53:14.838Z,5.82
2023-02-04T21:57:21.496Z,4.05
2023-02-04T22:01:28.163Z,3.95
2023-02-04T22:05:35.221Z,4.47
2023-02-04T22:09:42.030Z,4.57
2023-02-04T22:13:48.674Z,4.70
2023-02-04T22:17:55.770Z,6.40
2023-02-04T22:22:02.459Z,5.70
2023-02-04T22:26:09.192Z,4.13
2023-02-04T22:30:17.306Z,5.45
2023-02-04T22:34:25.190Z,4.85
2023-02-04T22:38:31.844Z,6.65
2023-02-04T22:42:38.591Z,5.75
2023-02-04T22:46:47.410Z,5.40
2023-02-04T22:50:56.500Z,3.65
2023-02-04T22:55:03.388Z,5.13
2023-02-04T22:59:10.070Z,4.70
2023-02-04T23:03:16.746Z,5.72
2023-02-04T23:07:23.448Z,6.30
2023-02-04T23:11:30.145Z,6.60
2023-02-04T23:15:36.916Z,3.95
2023-02-04T23:19:44.032Z,6.35
2023-02-04T23:23:51.364Z,7.13
2023-02-04T23:27:58.055Z,5.28
2023-02-04T23:32:05.187Z,3.88
2023-02-04T23:36:12.077Z,5.47
2023-02-04T23:40:18.811Z,4.65
2023-02-04T23:44:25.846Z,5.15
2023-02-04T23:48:32.612Z,6.32
2023-02-04T23:52:39.292Z,6.65
2023-02-04T23:56:46.085Z,5.50
